Time;durP1;ratioP1;P1;durP2;ratioP2;P2;SDS_P1;SDS_P2;PMS_P1;PMS_P2;Temp;Humidity;BMP_temperature;BMP_pressure;BME280_temperature;BME280_humidity;BME280_pressure;Samples;Min_cycle;Max_cycle;Signal;HPM_P1;HPM_P2
2024/01/19 00:01:14;;;;;;;4.80;1.13;;;1.40;99.90;;;;;;5054009;28;37536;-80
2024/01/19 00:03:46;;;;;;;4.75;1.45;;;1.30;99.90;;;;;;5056682;28;38762;-81
2024/01/19 00:06:16;;;;;;;9.13;1.13;;;1.30;99.90;;;;;;5053531;28;38463;-80
2024/01/19 00:08:52;;;;;;;11.40;1.30;;;1.20;99.90;;;;;;5058675;28;40349;-82
2024/01/19 00:11:22;;;;;;;7.20;1.10;;;1.00;99.90;;;;;;5074114;28;38548;-82
2024/01/19 00:13:54;;;;;;;6.00;0.87;;;1.00;99.90;;;;;;5052491;28;41026;-82
2024/01/19 00:16:23;;;;;;;3.22;1.23;;;0.90;99.90;;;;;;5055750;28;38621;-82
2024/01/19 00:19:04;;;;;;;10.17;2.27;;;0.90;99.90;;;;;;5070033;28;37840;-81
2024/01/19 00:21:37;;;;;;;3.50;0.80;;;0.70;99.90;;;;;;5066170;28;47509;-81
2024/01/19 00:24:13;;;;;;;5.53;1.10;;;0.70;99.90;;;;;;5074061;28;39394;-81
2024/01/19 00:26:50;;;;;;;8.27;1.03;;;0.70;99.90;;;;;;5059237;28;37418;-82
2024/01/19 00:29:23;;;;;;;4.37;1.53;;;0.70;99.90;;;;;;5068063;28;37967;-83
2024/01/19 00:31:50;;;;;;;;;;;0.60;99.90;;;;;;5070923;28;37555;-82
2024/01/19 00:34:27;;;;;;;6.27;1.50;;;0.50;99.90;;;;;;5055460;28;39568;-82
2024/01/19 00:36:56;;;;;;;4.53;1.17;;;0.50;99.90;;;;;;5044703;28;38820;-83
2024/01/19 00:39:27;;;;;;;3.77;1.07;;;0.40;99.90;;;;;;5045137;28;37656;-83
2024/01/19 00:42:08;;;;;;;4.47;1.00;;;0.30;99.90;;;;;;5060956;28;38483;-84
2024/01/19 00:44:35;;;;;;;4.27;1.10;;;0.20;99.90;;;;;;5054187;28;47617;-82
2024/01/19 00:47:04;;;;;;;4.70;1.20;;;0.30;99.90;;;;;;5077366;28;38880;-83
2024/01/19 00:49:31;;;;;;;4.03;1.30;;;0.20;99.90;;;;;;5057163;28;47901;-82
2024/01/19 00:52:04;;;;;;;4.00;1.30;;;0.20;99.90;;;;;;5061350;28;36290;-82
2024/01/19 00:54:31;;;;;;;6.87;1.33;;;0.10;99.90;;;;;;5074783;28;47537;-82
2024/01/19 00:57:04;;;;;;;5.43;1.43;;;0.00;99.90;;;;;;5063345;28;38518;-82
2024/01/19 00:59:31;;;;;;;6.03;1.40;;;0.00;99.90;;;;;;5079479;28;50200;-80
2024/01/19 01:01:58;;;;;;;6.40;2.27;;;0.10;99.90;;;;;;5063830;28;37288;-82
2024/01/19 01:04:24;;;;;;;6.87;1.80;;;0.10;99.90;;;;;;5058426;28;38828;-82
2024/01/19 01:06:57;;;;;;;7.57;1.40;;;0.10;99.90;;;;;;5066347;28;38445;-81
2024/01/19 01:09:26;;;;;;;6.63;1.50;;;0.00;99.90;;;;;;5056937;28;38344;-81
2024/01/19 01:11:57;;;;;;;4.23;1.43;;;0.00;99.90;;;;;;5058534;28;38737;-80
2024/01/19 01:14:26;;;;;;;3.00;1.50;;;-0.10;99.90;;;;;;5082360;28;40202;-82
2024/01/19 01:16:52;;;;;;;4.70;1.23;;;-0.10;99.90;;;;;;5060371;28;38272;-83
2024/01/19 01:19:23;;;;;;;6.37;1.53;;;-0.10;99.90;;;;;;5066127;28;38592;-82
2024/01/19 01:21:52;;;;;;;9.77;1.87;;;-0.10;99.90;;;;;;5064039;28;37249;-82
2024/01/19 01:24:22;;;;;;;9.57;1.77;;;0.10;99.90;;;;;;5065824;28;38292;-80
2024/01/19 01:26:51;;;;;;;7.13;2.10;;;0.30;99.90;;;;;;5079245;28;39791;-81
2024/01/19 01:29:26;;;;;;;8.77;2.20;;;0.50;99.90;;;;;;5057232;28;38401;-80
2024/01/19 01:32:00;;;;;;;6.07;2.00;;;0.50;99.90;;;;;;5050144;28;37130;-81
2024/01/19 01:34:29;;;;;;;11.33;2.80;;;0.60;99.90;;;;;;5061339;28;39364;-82
2024/01/19 01:37:04;;;;;;;9.17;2.40;;;0.70;99.90;;;;;;5050412;28;38746;-81
2024/01/19 01:39:31;;;;;;;11.47;2.20;;;0.80;99.90;;;;;;5038778;28;48143;-81
2024/01/19 01:42:01;;;;;;;7.37;2.40;;;0.90;99.90;;;;;;5060435;28;37004;-82
2024/01/19 01:44:28;;;;;;;6.53;2.33;;;0.90;99.90;;;;;;5059757;28;48384;-80
2024/01/19 01:47:01;;;;;;;11.50;2.40;;;0.90;99.90;;;;;;5051851;28;38567;-81
2024/01/19 01:49:34;;;;;;;8.13;2.37;;;1.00;99.90;;;;;;5055130;28;48533;-80
2024/01/19 01:52:08;;;;;;;5.07;1.80;;;1.10;99.90;;;;;;5050858;28;38342;-81
2024/01/19 01:54:35;;;;;;;7.40;2.43;;;1.10;99.90;;;;;;5063124;28;47882;-82
2024/01/19 01:57:07;;;;;;;10.00;2.33;;;1.20;99.90;;;;;;5046545;28;38296;-80
2024/01/19 01:59:41;;;;;;;5.38;1.80;;;1.10;99.90;;;;;;5057298;28;49316;-80
2024/01/19 02:04:43;;;;;;;8.00;2.07;;;1.10;99.90;;;;;;5112895;22;20053;-77
2024/01/19 02:07:10;;;;;;;6.83;2.23;;;1.10;99.90;;;;;;5056723;28;38724;-77
2024/01/19 02:09:36;;;;;;;7.23;1.77;;;1.10;99.90;;;;;;5048088;28;37496;-78
2024/01/19 02:12:03;;;;;;;7.53;2.10;;;1.20;99.90;;;;;;5052445;28;37867;-78
2024/01/19 02:14:29;;;;;;;7.00;2.00;;;1.30;99.90;;;;;;5053648;28;39330;-78
2024/01/19 02:16:55;;;;;;;10.97;2.30;;;1.30;99.90;;;;;;5053086;28;38595;-76
2024/01/19 02:19:22;;;;;;;7.63;2.33;;;1.40;99.90;;;;;;5032377;28;37195;-77
2024/01/19 02:21:48;;;;;;;6.37;2.10;;;1.50;99.90;;;;;;5041015;28;36652;-79
2024/01/19 02:24:15;;;;;;;9.47;2.70;;;1.60;99.90;;;;;;5041385;28;38056;-78
2024/01/19 02:26:41;;;;;;;6.70;2.97;;;1.70;99.90;;;;;;5027979;28;37249;-78
2024/01/19 02:29:08;;;;;;;11.73;3.23;;;1.70;99.90;;;;;;5035750;28;37397;-77
2024/01/19 02:31:34;;;;;;;11.03;2.33;;;1.90;99.90;;;;;;5034809;28;39304;-78
2024/01/19 02:34:00;;;;;;;6.67;2.53;;;2.00;99.90;;;;;;5041676;28;40090;-78
2024/01/19 02:36:27;;;;;;;10.03;2.97;;;2.00;99.10;;;;;;5056225;28;47555;-77
2024/01/19 02:38:53;;;;;;;14.80;3.23;;;2.00;98.20;;;;;;5040445;28;38238;-76
2024/01/19 02:41:19;;;;;;;13.60;3.30;;;2.00;99.40;;;;;;5049555;28;38175;-77
2024/01/19 02:43:45;;;;;;;11.60;3.37;;;1.90;99.30;;;;;;5028391;28;38229;-78
2024/01/19 02:46:14;;;;;;;10.13;3.23;;;2.00;98.80;;;;;;5028187;28;37793;-78
2024/01/19 02:48:40;;;;;;;10.43;3.23;;;2.00;98.80;;;;;;5061319;28;39681;-77
2024/01/19 02:51:06;;;;;;;7.63;3.00;;;2.00;98.60;;;;;;5041439;28;38778;-76
2024/01/19 02:53:33;;;;;;;14.20;3.57;;;2.10;97.70;;;;;;5046255;28;38884;-77
2024/01/19 02:56:00;;;;;;;13.37;3.60;;;2.10;98.10;;;;;;5032568;28;38202;-77
2024/01/19 02:58:26;;;;;;;12.97;4.03;;;2.00;98.10;;;;;;5035188;28;39168;-77
2024/01/19 03:00:54;;;;;;;11.60;4.23;;;2.10;97.00;;;;;;5030372;28;36207;-77
2024/01/19 03:03:20;;;;;;;11.83;3.40;;;2.00;96.40;;;;;;5042845;28;39137;-76
2024/01/19 03:05:46;;;;;;;12.07;3.90;;;2.00;96.70;;;;;;5055097;28;38911;-77
2024/01/19 03:08:12;;;;;;;6.93;3.57;;;1.90;96.30;;;;;;5038897;28;37176;-78
2024/01/19 03:10:38;;;;;;;13.90;4.50;;;1.90;96.20;;;;;;5027748;28;36127;-76
2024/01/19 03:13:05;;;;;;;11.37;4.03;;;2.00;94.80;;;;;;5030304;28;38200;-77
2024/01/19 03:15:31;;;;;;;12.47;4.47;;;1.90;95.60;;;;;;5026157;28;38804;-77
2024/01/19 03:17:57;;;;;;;10.73;3.87;;;2.00;93.50;;;;;;5030808;28;36581;-77
2024/01/19 03:20:23;;;;;;;16.13;4.47;;;1.90;91.80;;;;;;5016628;28;37740;-77
2024/01/19 03:22:50;;;;;;;11.43;4.30;;;2.00;93.20;;;;;;5024816;28;39054;-77
2024/01/19 03:25:16;;;;;;;17.77;5.97;;;2.00;93.00;;;;;;5021149;28;36714;-77
2024/01/19 03:27:42;;;;;;;8.17;4.30;;;1.90;92.60;;;;;;5043345;28;38179;-77
2024/01/19 03:30:09;;;;;;;17.23;4.43;;;1.80;92.70;;;;;;5029001;28;36987;-77
2024/01/19 03:32:35;;;;;;;14.40;4.53;;;1.80;94.20;;;;;;5025318;28;39701;-76
2024/01/19 03:35:02;;;;;;;9.90;4.30;;;1.80;96.40;;;;;;5023061;28;38706;-77
2024/01/19 03:37:28;;;;;;;18.50;4.87;;;1.70;97.70;;;;;;5024945;28;37195;-76
2024/01/19 03:39:54;;;;;;;7.17;4.13;;;1.60;97.30;;;;;;5040308;28;37063;-77
2024/01/19 03:42:20;;;;;;;14.70;4.70;;;1.50;98.30;;;;;;5023020;28;39475;-77
2024/01/19 03:44:46;;;;;;;14.00;4.47;;;1.40;99.90;;;;;;5026480;28;39094;-76
2024/01/19 03:47:12;;;;;;;11.43;4.53;;;1.30;99.90;;;;;;5045720;28;39208;-77
2024/01/19 03:49:40;;;;;;;18.33;4.60;;;1.40;99.90;;;;;;5043397;28;36952;-77
2024/01/19 03:52:07;;;;;;;12.00;4.63;;;1.50;99.90;;;;;;5027852;28;39590;-78
2024/01/19 03:54:34;;;;;;;15.43;5.00;;;1.70;99.90;;;;;;5023800;28;38516;-78
2024/01/19 03:57:03;;;;;;;11.03;4.33;;;1.70;99.90;;;;;;5035467;28;37644;-77
2024/01/19 03:59:29;;;;;;;16.00;4.13;;;1.70;99.90;;;;;;5029849;28;47714;-79
2024/01/19 04:01:55;;;;;;;12.17;4.77;;;1.60;99.90;;;;;;5043671;28;38795;-77
2024/01/19 04:04:25;;;;;;;11.77;4.47;;;1.60;99.90;;;;;;5029761;28;37413;-78
2024/01/19 04:06:52;;;;;;;14.80;5.30;;;1.50;99.90;;;;;;5026636;28;38495;-77
2024/01/19 04:09:19;;;;;;;14.63;4.83;;;1.50;99.90;;;;;;5029864;28;37073;-78
2024/01/19 04:11:46;;;;;;;13.60;5.43;;;1.50;99.90;;;;;;5032898;28;39667;-78
2024/01/19 04:14:12;;;;;;;12.77;4.47;;;1.40;99.90;;;;;;5031546;28;38304;-78
2024/01/19 04:16:38;;;;;;;11.63;5.37;;;1.40;99.90;;;;;;5035017;28;38968;-77
2024/01/19 04:19:05;;;;;;;17.63;5.63;;;1.40;99.90;;;;;;5054837;28;38046;-78
2024/01/19 04:21:32;;;;;;;12.13;4.73;;;1.20;99.90;;;;;;5022169;28;39719;-77
2024/01/19 04:23:59;;;;;;;10.63;4.40;;;1.20;99.90;;;;;;5039239;28;39956;-77
2024/01/19 04:26:27;;;;;;;11.47;4.20;;;1.20;99.90;;;;;;5051201;28;38274;-78
2024/01/19 04:28:54;;;;;;;14.03;4.70;;;1.20;99.90;;;;;;5027375;28;37943;-78
2024/01/19 04:31:21;;;;;;;15.00;4.80;;;1.20;99.90;;;;;;5043502;28;38983;-77
2024/01/19 04:33:47;;;;;;;19.47;4.90;;;1.20;99.90;;;;;;5031585;28;39115;-78
2024/01/19 04:36:13;;;;;;;19.50;4.33;;;1.10;99.90;;;;;;5031523;28;37241;-78
2024/01/19 04:38:39;;;;;;;12.33;4.80;;;1.10;99.90;;;;;;5036369;28;36920;-78
2024/01/19 04:41:06;;;;;;;17.47;5.30;;;1.10;99.90;;;;;;5043113;28;38499;-77
2024/01/19 04:43:32;;;;;;;16.77;4.60;;;1.10;99.90;;;;;;5032184;28;40372;-78
2024/01/19 04:45:58;;;;;;;18.77;5.60;;;1.20;99.90;;;;;;5030116;28;38899;-77
2024/01/19 04:48:24;;;;;;;10.83;4.73;;;1.20;99.90;;;;;;5025045;28;37750;-77
2024/01/19 04:50:50;;;;;;;12.27;4.13;;;1.30;99.90;;;;;;5031664;28;40967;-77
2024/01/19 04:53:16;;;;;;;9.20;3.60;;;1.40;99.90;;;;;;5031286;28;38803;-77
2024/01/19 04:55:43;;;;;;;11.10;2.67;;;1.80;99.90;;;;;;5057836;28;39141;-76
2024/01/19 04:58:09;;;;;;;12.20;2.47;;;2.00;99.90;;;;;;5033753;28;37006;-77
2024/01/19 05:00:35;;;;;;;10.50;2.67;;;2.10;99.90;;;;;;5024029;28;38958;-78
2024/01/19 05:03:03;;;;;;;13.50;3.20;;;2.10;99.90;;;;;;5018756;28;38553;-78
2024/01/19 05:05:29;;;;;;;7.37;2.37;;;2.00;99.90;;;;;;5026300;28;39829;-76
2024/01/19 05:07:55;;;;;;;6.60;2.30;;;2.00;99.90;;;;;;5023069;28;37871;-77
2024/01/19 05:10:21;;;;;;;6.80;1.80;;;1.90;99.90;;;;;;5029914;28;40386;-76
2024/01/19 05:12:48;;;;;;;5.57;2.23;;;1.80;99.90;;;;;;5044144;28;38150;-78
2024/01/19 05:15:14;;;;;;;7.80;2.30;;;1.70;99.90;;;;;;5043277;28;39281;-77
2024/01/19 05:17:40;;;;;;;7.33;2.30;;;1.70;99.90;;;;;;5039790;28;37739;-78
2024/01/19 05:20:06;;;;;;;6.53;2.20;;;1.60;99.90;;;;;;5027671;28;39723;-78
2024/01/19 05:22:33;;;;;;;6.07;1.80;;;1.50;99.90;;;;;;5029594;28;37452;-77
2024/01/19 05:24:59;;;;;;;6.27;2.43;;;1.40;99.90;;;;;;5026196;28;38809;-77
2024/01/19 05:27:25;;;;;;;8.17;2.80;;;1.40;99.90;;;;;;5005143;28;37245;-77
2024/01/19 05:29:51;;;;;;;7.57;2.60;;;1.30;99.90;;;;;;5040322;28;38320;-77
2024/01/19 05:32:18;;;;;;;5.20;2.33;;;1.20;99.90;;;;;;5029798;28;39798;-77
2024/01/19 05:34:44;;;;;;;8.07;2.30;;;1.20;99.90;;;;;;5023890;28;37069;-76
2024/01/19 05:37:10;;;;;;;4.73;1.83;;;1.10;99.90;;;;;;5028720;28;36084;-79
2024/01/19 05:39:36;;;;;;;4.03;1.80;;;1.10;99.90;;;;;;5022599;28;40525;-77
2024/01/19 05:42:02;;;;;;;4.17;1.77;;;1.00;99.90;;;;;;5018845;28;39402;-79
2024/01/19 05:44:29;;;;;;;3.20;1.90;;;1.00;99.90;;;;;;5039138;28;38432;-77
2024/01/19 05:46:55;;;;;;;4.63;1.77;;;0.90;99.90;;;;;;5034289;28;36322;-78
2024/01/19 05:49:21;;;;;;;6.60;2.10;;;0.90;99.90;;;;;;5025946;28;39943;-78
2024/01/19 05:51:50;;;;;;;6.17;1.97;;;0.90;99.90;;;;;;5032438;28;40002;-77
2024/01/19 05:54:16;;;;;;;4.07;2.50;;;0.80;99.90;;;;;;5049216;28;38898;-76
2024/01/19 05:56:42;;;;;;;5.23;2.50;;;0.80;99.90;;;;;;5037474;28;36498;-75
2024/01/19 05:59:08;;;;;;;6.50;2.80;;;0.80;99.90;;;;;;5049793;28;41087;-77
2024/01/19 06:01:35;;;;;;;7.97;3.07;;;0.80;99.90;;;;;;5035410;28;38166;-76
2024/01/19 06:04:01;;;;;;;7.10;2.47;;;0.80;99.90;;;;;;5052176;28;38418;-77
2024/01/19 06:06:27;;;;;;;8.13;2.87;;;0.80;99.90;;;;;;5039096;28;47481;-77
2024/01/19 06:08:53;;;;;;;6.60;2.30;;;0.80;99.90;;;;;;5056114;28;38612;-77
2024/01/19 06:11:20;;;;;;;4.37;2.63;;;0.70;99.90;;;;;;5037082;28;38914;-77
2024/01/19 06:13:47;;;;;;;6.13;1.97;;;0.70;99.90;;;;;;5047569;28;38959;-77
2024/01/19 06:16:13;;;;;;;8.63;3.23;;;0.60;99.90;;;;;;5027258;28;36648;-77
2024/01/19 06:18:40;;;;;;;13.40;3.10;;;0.60;99.90;;;;;;5026460;28;37947;-77
2024/01/19 06:21:10;;;;;;;8.73;3.23;;;0.60;99.90;;;;;;5034257;28;38299;-77
2024/01/19 06:23:39;;;;;;;9.53;3.73;;;0.70;99.90;;;;;;5026454;28;37919;-77
2024/01/19 06:26:12;;;;;;;4.77;2.93;;;0.60;99.90;;;;;;5025921;28;38387;-77
2024/01/19 06:28:42;;;;;;;5.03;3.20;;;0.70;99.90;;;;;;5016081;28;38915;-76
2024/01/19 06:31:10;;;;;;;8.23;2.80;;;0.80;99.90;;;;;;5046384;28;39519;-76
2024/01/19 06:33:40;;;;;;;8.03;3.00;;;0.70;99.90;;;;;;5029278;28;36948;-75
2024/01/19 06:36:12;;;;;;;9.20;3.33;;;0.60;99.90;;;;;;5032362;28;37508;-77
2024/01/19 06:38:38;;;;;;;9.40;3.60;;;0.60;99.90;;;;;;5029659;28;40653;-77
2024/01/19 06:41:04;;;;;;;6.13;2.93;;;0.60;99.90;;;;;;5023764;28;38446;-78
2024/01/19 06:43:31;;;;;;;7.30;2.90;;;0.50;99.90;;;;;;5032317;28;38257;-77
2024/01/19 06:45:57;;;;;;;9.97;3.50;;;0.40;99.90;;;;;;5020975;28;38097;-77
2024/01/19 06:48:23;;;;;;;14.23;4.23;;;0.30;99.90;;;;;;5025037;28;39096;-78
2024/01/19 06:50:52;;;;;;;13.47;4.87;;;0.30;99.90;;;;;;5020022;28;38602;-78
2024/01/19 06:53:19;;;;;;;14.90;4.43;;;0.20;99.90;;;;;;5000488;28;37142;-77
2024/01/19 06:55:45;;;;;;;10.37;4.10;;;0.20;99.90;;;;;;5039329;28;36474;-81
2024/01/19 06:58:11;;;;;;;17.03;4.90;;;0.10;99.90;;;;;;5028024;28;37970;-77
2024/01/19 07:00:37;;;;;;;10.40;4.17;;;0.10;99.90;;;;;;5031417;28;37330;-78
2024/01/19 07:03:04;;;;;;;9.43;4.30;;;0.00;99.90;;;;;;5025212;28;36952;-77
2024/01/19 07:05:30;;;;;;;9.17;4.80;;;-0.10;99.90;;;;;;5022684;28;37454;-78
2024/01/19 07:07:58;;;;;;;16.30;6.30;;;-0.20;99.90;;;;;;5021774;28;38109;-77
2024/01/19 07:10:24;;;;;;;11.70;5.63;;;-0.30;99.90;;;;;;5020933;28;37225;-77
2024/01/19 07:12:51;;;;;;;14.83;6.37;;;-0.30;99.90;;;;;;5027003;28;36904;-77
2024/01/19 07:15:17;;;;;;;12.90;6.50;;;-0.30;99.90;;;;;;5053656;28;37051;-78
2024/01/19 07:17:43;;;;;;;12.93;7.50;;;-0.30;99.90;;;;;;5038434;28;39943;-77
2024/01/19 07:20:10;;;;;;;14.43;7.00;;;-0.30;99.90;;;;;;5035865;28;38735;-78
2024/01/19 07:22:36;;;;;;;11.83;7.23;;;-0.40;99.90;;;;;;5038057;28;37352;-78
2024/01/19 07:25:03;;;;;;;16.07;9.23;;;-0.40;99.90;;;;;;5025124;28;37336;-77
2024/01/19 07:27:29;;;;;;;21.87;7.97;;;-0.50;99.90;;;;;;5023801;28;39673;-76
2024/01/19 07:29:55;;;;;;;13.43;6.93;;;-0.50;99.90;;;;;;5018063;28;39990;-78
2024/01/19 07:32:24;;;;;;;11.33;7.00;;;-0.50;99.90;;;;;;5037900;28;38136;-78
2024/01/19 07:34:51;;;;;;;14.60;6.90;;;-0.50;99.90;;;;;;5030272;28;38243;-77
2024/01/19 07:37:17;;;;;;;10.40;6.20;;;-0.50;99.90;;;;;;5026962;28;39158;-78
2024/01/19 07:39:43;;;;;;;12.97;4.47;;;-0.50;99.90;;;;;;5029543;28;39350;-79
2024/01/19 07:42:10;;;;;;;12.70;4.13;;;-0.20;99.90;;;;;;5024652;28;36678;-77
2024/01/19 07:44:36;;;;;;;16.53;4.37;;;0.00;99.90;;;;;;5042371;28;38210;-78
2024/01/19 07:47:03;;;;;;;12.50;4.03;;;0.20;99.90;;;;;;5022230;28;40257;-78
2024/01/19 07:49:29;;;;;;;12.27;3.90;;;0.30;99.90;;;;;;5030672;28;38975;-75
2024/01/19 07:51:55;;;;;;;12.93;3.67;;;0.50;99.90;;;;;;5021504;28;38343;-77
2024/01/19 07:54:21;;;;;;;11.10;3.97;;;0.50;99.90;;;;;;5049268;28;37397;-77
2024/01/19 07:56:47;;;;;;;12.63;4.00;;;0.50;99.90;;;;;;5031612;28;39292;-78
2024/01/19 07:59:14;;;;;;;12.83;4.90;;;0.60;99.90;;;;;;5023480;28;39335;-77
2024/01/19 08:01:40;;;;;;;9.90;4.03;;;0.60;99.90;;;;;;5049878;28;37767;-77
2024/01/19 08:04:06;;;;;;;10.73;3.43;;;0.60;99.90;;;;;;5025140;28;36693;-78
2024/01/19 08:06:32;;;;;;;12.23;4.13;;;0.50;99.90;;;;;;5029008;28;39097;-78
2024/01/19 08:08:59;;;;;;;8.93;3.73;;;0.50;99.90;;;;;;5031170;28;38656;-79
2024/01/19 08:11:25;;;;;;;10.33;4.23;;;0.60;99.90;;;;;;5031394;28;37015;-80
2024/01/19 08:13:51;;;;;;;7.63;4.10;;;0.60;99.90;;;;;;5030178;28;37655;-78
2024/01/19 08:16:17;;;;;;;14.80;5.17;;;0.70;99.90;;;;;;5031328;28;37786;-78
2024/01/19 08:18:44;;;;;;;13.30;4.60;;;0.80;99.90;;;;;;5027080;28;38929;-79
2024/01/19 08:21:10;;;;;;;11.30;4.60;;;0.90;99.90;;;;;;5025531;28;40671;-80
2024/01/19 08:23:37;;;;;;;9.37;3.70;;;0.80;99.90;;;;;;5028794;28;36436;-79
2024/01/19 08:26:06;;;;;;;13.73;4.67;;;0.90;99.90;;;;;;5026085;28;39288;-77
2024/01/19 08:28:32;;;;;;;9.57;4.60;;;0.90;99.90;;;;;;5040999;28;38525;-80
2024/01/19 08:30:58;;;;;;;10.30;4.83;;;1.00;99.90;;;;;;5044246;28;40476;-79
2024/01/19 08:33:25;;;;;;;7.40;4.90;;;0.90;99.90;;;;;;5047398;28;37542;-78
2024/01/19 08:35:51;;;;;;;8.60;5.93;;;1.00;99.90;;;;;;5031490;28;38244;-80
2024/01/19 08:38:17;;;;;;;18.20;6.33;;;1.00;99.90;;;;;;5044035;28;39385;-78
2024/01/19 08:40:44;;;;;;;18.23;6.30;;;1.10;99.90;;;;;;5034040;28;38312;-78
2024/01/19 08:43:10;;;;;;;12.10;5.50;;;1.10;99.90;;;;;;5027865;28;39536;-80
2024/01/19 08:45:37;;;;;;;13.10;5.67;;;1.10;99.90;;;;;;5027218;28;37748;-81
2024/01/19 08:48:04;;;;;;;14.93;5.83;;;1.10;99.90;;;;;;5034373;28;38322;-79
2024/01/19 08:50:30;;;;;;;16.93;5.77;;;1.10;99.90;;;;;;5045789;28;37136;-79
2024/01/19 08:52:56;;;;;;;12.17;6.17;;;1.00;99.90;;;;;;5048412;28;37916;-79
2024/01/19 08:55:23;;;;;;;14.10;5.40;;;1.10;99.90;;;;;;5033205;28;38227;-80
2024/01/19 08:57:49;;;;;;;11.17;5.20;;;1.10;99.90;;;;;;5031285;28;37542;-80
2024/01/19 09:00:16;;;;;;;12.93;5.70;;;1.00;99.90;;;;;;5024442;28;39925;-79
2024/01/19 09:02:42;;;;;;;12.73;6.40;;;1.00;99.90;;;;;;5040099;28;36700;-80
2024/01/19 09:05:11;;;;;;;14.60;5.93;;;1.10;99.90;;;;;;5028383;28;37411;-79
2024/01/19 09:07:38;;;;;;;15.50;6.77;;;1.20;99.90;;;;;;5044157;28;38501;-79
2024/01/19 09:10:04;;;;;;;14.77;6.90;;;1.30;99.90;;;;;;5050631;28;37675;-80
2024/01/19 09:12:31;;;;;;;15.43;7.83;;;1.50;99.90;;;;;;5033640;28;44500;-79
2024/01/19 09:14:57;;;;;;;16.27;7.23;;;1.40;99.90;;;;;;5044203;28;40520;-79
2024/01/19 09:17:24;;;;;;;17.07;7.73;;;1.50;99.90;;;;;;5043144;28;38949;-79
2024/01/19 09:19:51;;;;;;;15.97;6.53;;;1.50;99.90;;;;;;5041833;28;36937;-79
2024/01/19 09:22:18;;;;;;;26.87;7.63;;;1.60;99.90;;;;;;5046288;28;36477;-79
2024/01/19 09:24:44;;;;;;;14.17;7.00;;;1.50;99.90;;;;;;5052346;28;40662;-80
2024/01/19 09:27:10;;;;;;;14.83;6.80;;;1.50;99.90;;;;;;5037400;28;37685;-79
2024/01/19 09:29:36;;;;;;;15.93;7.80;;;1.60;99.90;;;;;;5039948;28;37080;-78
2024/01/19 09:32:03;;;;;;;16.30;6.83;;;1.70;99.90;;;;;;5037577;28;36206;-77
2024/01/19 09:34:29;;;;;;;13.67;7.33;;;1.70;99.90;;;;;;5057007;28;40182;-79
2024/01/19 09:36:55;;;;;;;14.67;6.17;;;1.70;99.90;;;;;;5042470;28;38523;-79
2024/01/19 09:39:23;;;;;;;13.07;6.90;;;1.80;99.90;;;;;;5050274;28;37704;-80
2024/01/19 09:41:52;;;;;;;14.57;7.43;;;1.80;99.90;;;;;;5058167;28;37356;-79
2024/01/19 09:44:20;;;;;;;14.53;6.70;;;1.80;99.90;;;;;;5032349;28;38308;-78
2024/01/19 09:47:15;;;;;;;18.43;6.97;;;1.90;99.90;;;;;;5035130;28;36472;-79
2024/01/19 09:49:47;;;;;;;14.50;7.30;;;1.90;99.90;;;;;;5033163;28;47070;-78
2024/01/19 09:52:43;;;;;;;19.73;7.88;;;2.00;99.90;;;;;;5036367;28;35885;-79
2024/01/19 09:55:13;;;;;;;20.53;7.60;;;2.00;99.90;;;;;;5030918;28;39790;-79
2024/01/19 09:57:45;;;;;;;20.47;8.20;;;2.10;99.90;;;;;;5034609;28;37352;-79
2024/01/19 10:00:13;;;;;;;21.58;7.53;;;2.20;99.90;;;;;;5039717;28;37879;-80
2024/01/19 10:02:45;;;;;;;24.07;7.17;;;2.30;99.90;;;;;;5034115;28;38119;-80
2024/01/19 10:05:13;;;;;;;24.50;7.47;;;2.30;99.90;;;;;;5036029;28;39509;-79
2024/01/19 10:07:44;;;;;;;17.07;6.60;;;2.40;99.90;;;;;;5040051;28;39247;-79
2024/01/19 10:10:11;;;;;;;18.20;7.27;;;2.40;99.90;;;;;;5031326;28;38525;-79
2024/01/19 10:12:39;;;;;;;21.90;9.37;;;2.50;99.90;;;;;;5032240;28;37352;-79
2024/01/19 10:15:11;;;;;;;18.27;6.87;;;2.50;99.90;;;;;;5029032;28;39043;-80
2024/01/19 10:17:42;;;;;;;21.40;7.45;;;2.60;99.90;;;;;;5030150;28;37445;-79
2024/01/19 10:20:13;;;;;;;16.43;6.47;;;2.70;99.90;;;;;;5025263;28;38417;-80
2024/01/19 10:22:43;;;;;;;19.17;6.70;;;2.70;99.90;;;;;;5032114;28;37895;-79
2024/01/19 10:25:14;;;;;;;16.80;5.33;;;2.80;99.90;;;;;;5026353;28;39147;-82
2024/01/19 10:27:45;;;;;;;12.90;5.67;;;2.80;99.90;;;;;;5042431;28;38325;-80
2024/01/19 10:30:16;;;;;;;19.47;6.87;;;2.90;99.90;;;;;;5023339;28;37421;-78
2024/01/19 10:32:45;;;;;;;17.57;5.00;;;3.00;99.90;;;;;;5034534;28;37702;-78
2024/01/19 10:35:14;;;;;;;16.53;5.27;;;3.00;99.90;;;;;;5037952;28;39943;-79
2024/01/19 10:37:40;;;;;;;11.60;4.97;;;3.10;99.90;;;;;;5027577;28;39153;-80
2024/01/19 10:40:23;;;;;;;15.07;4.90;;;3.10;99.90;;;;;;5031568;28;39599;-79
2024/01/19 10:42:56;;;;;;;14.50;4.93;;;3.10;99.90;;;;;;5046497;28;36111;-80
2024/01/19 10:45:23;;;;;;;;;;;3.20;99.90;;;;;;5043484;28;37840;-80
2024/01/19 10:47:51;;;;;;;10.93;4.70;;;3.30;99.90;;;;;;5046083;28;39189;-79
2024/01/19 10:50:19;;;;;;;13.53;5.10;;;3.40;99.90;;;;;;5039015;28;35743;-80
2024/01/19 10:52:48;;;;;;;13.17;4.70;;;3.50;99.90;;;;;;5058768;28;37850;-80
2024/01/19 10:55:25;;;;;;;13.63;4.13;;;3.50;99.90;;;;;;5027313;28;40709;-81
2024/01/19 10:57:55;;;;;;;15.83;4.63;;;3.50;99.90;;;;;;5018532;28;38048;-79
2024/01/19 11:00:26;;;;;;;13.27;5.00;;;3.50;99.90;;;;;;5025627;28;37056;-79
2024/01/19 11:02:55;;;;;;;11.03;4.87;;;3.60;99.90;;;;;;5049788;28;48218;-80
2024/01/19 11:05:21;;;;;;;21.57;5.60;;;3.60;99.90;;;;;;5033894;28;39208;-79
2024/01/19 11:07:57;;;;;;;12.27;5.23;;;3.70;99.90;;;;;;5032249;28;37900;-79
2024/01/19 11:10:25;;;;;;;17.70;4.87;;;3.80;99.90;;;;;;5056553;28;38289;-79
2024/01/19 11:12:56;;;;;;;16.87;5.30;;;3.80;99.90;;;;;;5030853;28;37932;-77
2024/01/19 11:15:51;;;;;;;18.03;5.77;;;3.80;99.90;;;;;;5031710;28;39417;-80
2024/01/19 11:18:17;;;;;;;17.77;5.63;;;3.90;99.90;;;;;;5058352;28;38819;-80
2024/01/19 11:20:44;;;;;;;14.47;5.00;;;3.90;99.90;;;;;;5061358;28;37213;-79
2024/01/19 11:23:10;;;;;;;16.67;4.93;;;3.90;99.90;;;;;;5033628;28;36070;-80
2024/01/19 11:25:45;;;;;;;15.33;5.03;;;4.00;99.90;;;;;;5036353;28;39520;-79
2024/01/19 11:28:32;;;;;;;14.13;4.70;;;4.00;99.90;;;;;;5034616;28;38101;-80
2024/01/19 11:31:18;;;;;;;11.43;4.67;;;4.10;99.90;;;;;;5049211;28;38266;-79
2024/01/19 11:33:45;;;;;;;11.33;4.63;;;4.10;99.90;;;;;;5026929;28;47244;-79
2024/01/19 11:36:33;;;;;;;14.07;5.10;;;4.20;99.90;;;;;;5034211;28;39349;-80
2024/01/19 11:38:59;;;;;;;9.03;4.87;;;4.20;99.90;;;;;;5036190;28;39764;-79
2024/01/19 11:41:35;;;;;;;13.50;4.43;;;4.30;99.60;;;;;;5032694;28;38014;-78
2024/01/19 11:44:05;;;;;;;12.43;4.30;;;4.30;94.90;;;;;;5051956;28;38666;-80
2024/01/19 11:46:42;;;;;;;9.60;4.37;;;4.40;91.90;;;;;;5029737;28;47119;-79
2024/01/19 11:49:09;;;;;;;10.67;4.50;;;4.40;92.40;;;;;;5058250;28;38927;-79
2024/01/19 11:51:35;;;;;;;9.83;5.50;;;4.50;91.30;;;;;;5029472;28;37593;-80
2024/01/19 11:54:03;;;;;;;12.70;5.30;;;4.50;90.00;;;;;;5036020;28;36137;-80
2024/01/19 11:56:31;;;;;;;9.87;5.00;;;4.60;86.10;;;;;;5030159;28;38660;-79
2024/01/19 11:58:58;;;;;;;12.07;4.33;;;4.70;88.50;;;;;;5028233;28;38555;-79
2024/01/19 12:01:24;;;;;;;8.63;4.73;;;4.80;70.60;;;;;;5046218;28;38367;-79
2024/01/19 12:03:53;;;;;;;10.53;4.70;;;4.80;53.90;;;;;;5044470;28;37058;-80
2024/01/19 12:06:20;;;;;;;12.60;4.97;;;4.80;47.00;;;;;;5030599;28;38029;-79
2024/01/19 12:09:05;;;;;;;9.37;4.57;;;4.80;40.80;;;;;;5039719;28;37694;-79
2024/01/19 12:11:32;;;;;;;11.07;4.37;;;4.80;48.20;;;;;;5037645;28;47383;-78
2024/01/19 12:14:03;;;;;;;9.13;4.43;;;4.80;52.00;;;;;;5035130;28;36323;-79
2024/01/19 12:16:33;;;;;;;11.60;4.00;;;4.90;50.20;;;;;;5035658;28;47303;-80
2024/01/19 12:18:59;;;;;;;9.20;3.37;;;4.90;45.90;;;;;;5051093;28;39070;-80
2024/01/19 12:21:26;;;;;;;7.93;3.60;;;4.90;31.80;;;;;;5029021;28;39001;-81
2024/01/19 12:23:57;;;;;;;11.57;3.50;;;4.90;23.00;;;;;;5031841;28;36995;-80
2024/01/19 12:26:24;;;;;;;10.23;4.03;;;4.90;28.40;;;;;;5028643;28;37822;-79
2024/01/19 12:28:51;;;;;;;9.27;4.13;;;5.00;38.00;;;;;;5017272;28;37582;-79
2024/01/19 12:31:24;;;;;;;5.67;3.60;;;5.00;30.00;;;;;;5030671;28;38222;-79
2024/01/19 12:33:51;;;;;;;7.70;3.80;;;5.00;21.50;;;;;;5038362;28;36055;-79
2024/01/19 12:36:18;;;;;;;8.03;3.40;;;5.00;31.30;;;;;;5042396;28;37832;-79
2024/01/19 12:38:45;;;;;;;8.57;3.30;;;5.10;26.10;;;;;;5033956;28;38424;-81
2024/01/19 12:41:18;;;;;;;8.20;3.80;;;5.10;17.30;;;;;;5032051;28;37281;-81
2024/01/19 12:43:44;;;;;;;10.33;2.60;;;5.00;18.10;;;;;;5037833;28;37564;-79
2024/01/19 12:46:12;;;;;;;7.43;2.67;;;5.10;11.20;;;;;;5055151;28;38852;-80
2024/01/19 12:48:41;;;;;;;8.23;3.10;;;5.10;16.40;;;;;;5043643;28;37254;-80
2024/01/19 12:51:08;;;;;;;6.80;2.57;;;5.10;7.30;;;;;;5041212;28;37206;-79
2024/01/19 12:53:35;;;;;;;10.10;2.60;;;5.10;1.00;;;;;;5056747;28;36931;-79
2024/01/19 12:56:19;;;;;;;5.50;2.53;;;5.00;1.00;;;;;;5040182;28;39124;-79
2024/01/19 12:58:45;;;;;;;6.80;2.30;;;5.00;1.50;;;;;;5060123;28;48565;-81